sensor_id;sensor_type;location;lat;lon;timestamp;P1;durP1;ratioP1;P2;durP2;ratioP2
45728;SDS011;31439;53.512;10.206;2023-06-26T00:01:19;8.48;;;7.57;;
45728;SDS011;31439;53.512;10.206;2023-06-26T00:03:47;14.18;;;7.82;;
45728;SDS011;31439;53.512;10.206;2023-06-26T00:06:13;8.50;;;7.70;;
45728;SDS011;31439;53.512;10.206;2023-06-26T00:08:39;9.73;;;7.50;;
45728;SDS011;31439;53.512;10.206;2023-06-26T00:11:05;8.68;;;7.78;;
45728;SDS011;31439;53.512;10.206;2023-06-26T00:13:30;8.88;;;7.97;;
45728;SDS011;31439;53.512;10.206;2023-06-26T00:15:56;9.30;;;8.38;;
45728;SDS011;31439;53.512;10.206;2023-06-26T00:18:22;9.23;;;8.27;;
45728;SDS011;31439;53.512;10.206;2023-06-26T00:20:48;10.10;;;7.80;;
45728;SDS011;31439;53.512;10.206;2023-06-26T00:23:16;9.05;;;8.15;;
45728;SDS011;31439;53.512;10.206;2023-06-26T00:25:41;9.20;;;8.30;;
45728;SDS011;31439;53.512;10.206;2023-06-26T00:28:07;11.23;;;8.05;;
45728;SDS011;31439;53.512;10.206;2023-06-26T00:30:33;10.43;;;8.52;;
45728;SDS011;31439;53.512;10.206;2023-06-26T00:32:59;10.43;;;8.27;;
45728;SDS011;31439;53.512;10.206;2023-06-26T00:35:24;9.55;;;7.88;;
45728;SDS011;31439;53.512;10.206;2023-06-26T00:37:50;8.75;;;7.85;;
45728;SDS011;31439;53.512;10.206;2023-06-26T00:40:16;9.52;;;8.52;;
45728;SDS011;31439;53.512;10.206;2023-06-26T00:42:41;9.02;;;8.10;;
45728;SDS011;31439;53.512;10.206;2023-06-26T00:45:07;9.63;;;8.38;;
45728;SDS011;31439;53.512;10.206;2023-06-26T01:14:29;8.95;;;7.93;;
45728;SDS011;31439;53.512;10.206;2023-06-26T01:16:55;8.73;;;7.82;;
45728;SDS011;31439;53.512;10.206;2023-06-26T01:19:27;9.07;;;7.60;;
45728;SDS011;31439;53.512;10.206;2023-06-26T01:22:02;9.07;;;8.18;;
45728;SDS011;31439;53.512;10.206;2023-06-26T01:24:39;9.40;;;7.68;;
45728;SDS011;31439;53.512;10.206;2023-06-26T01:27:12;8.90;;;7.75;;
45728;SDS011;31439;53.512;10.206;2023-06-26T01:29:39;9.18;;;7.13;;
45728;SDS011;31439;53.512;10.206;2023-06-26T01:32:06;8.52;;;7.63;;
45728;SDS011;31439;53.512;10.206;2023-06-26T01:34:32;9.20;;;7.82;;
45728;SDS011;31439;53.512;10.206;2023-06-26T01:36:58;8.32;;;7.50;;
45728;SDS011;31439;53.512;10.206;2023-06-26T01:39:24;9.15;;;7.47;;
45728;SDS011;31439;53.512;10.206;2023-06-26T01:41:49;10.07;;;7.40;;
45728;SDS011;31439;53.512;10.206;2023-06-26T01:44:23;8.90;;;7.80;;
45728;SDS011;31439;53.512;10.206;2023-06-26T01:47:02;8.57;;;7.68;;
45728;SDS011;31439;53.512;10.206;2023-06-26T01:49:47;9.60;;;7.65;;
45728;SDS011;31439;53.512;10.206;2023-06-26T01:52:27;8.50;;;7.32;;
45728;SDS011;31439;53.512;10.206;2023-06-26T01:57:50;9.15;;;7.50;;
45728;SDS011;31439;53.512;10.206;2023-06-26T02:00:19;8.15;;;7.35;;
45728;SDS011;31439;53.512;10.206;2023-06-26T02:02:46;8.82;;;7.40;;
45728;SDS011;31439;53.512;10.206;2023-06-26T02:05:12;9.35;;;7.72;;
45728;SDS011;31439;53.512;10.206;2023-06-26T02:07:39;10.00;;;7.63;;
45728;SDS011;31439;53.512;10.206;2023-06-26T02:10:05;7.50;;;6.57;;
45728;SDS011;31439;53.512;10.206;2023-06-26T02:12:31;8.23;;;7.18;;
45728;SDS011;31439;53.512;10.206;2023-06-26T02:14:56;8.38;;;6.78;;
45728;SDS011;31439;53.512;10.206;2023-06-26T02:17:22;10.48;;;7.57;;
45728;SDS011;31439;53.512;10.206;2023-06-26T02:19:47;7.82;;;7.00;;
45728;SDS011;31439;53.512;10.206;2023-06-26T02:22:13;8.30;;;7.15;;
45728;SDS011;31439;53.512;10.206;2023-06-26T02:24:40;8.32;;;7.38;;
45728;SDS011;31439;53.512;10.206;2023-06-26T02:27:06;7.80;;;7.00;;
45728;SDS011;31439;53.512;10.206;2023-06-26T02:29:32;8.73;;;7.00;;
45728;SDS011;31439;53.512;10.206;2023-06-26T02:31:57;7.47;;;6.78;;
45728;SDS011;31439;53.512;10.206;2023-06-26T02:34:23;7.95;;;7.15;;
45728;SDS011;31439;53.512;10.206;2023-06-26T02:36:49;8.80;;;6.80;;
45728;SDS011;31439;53.512;10.206;2023-06-26T02:39:14;7.60;;;6.60;;
45728;SDS011;31439;53.512;10.206;2023-06-26T02:41:40;8.50;;;6.88;;
45728;SDS011;31439;53.512;10.206;2023-06-26T02:44:06;7.10;;;6.40;;
45728;SDS011;31439;53.512;10.206;2023-06-26T02:46:32;8.13;;;7.07;;
45728;SDS011;31439;53.512;10.206;2023-06-26T02:48:58;9.15;;;7.30;;
45728;SDS011;31439;53.512;10.206;2023-06-26T02:51:24;8.15;;;7.32;;
45728;SDS011;31439;53.512;10.206;2023-06-26T02:53:50;8.93;;;7.15;;
45728;SDS011;31439;53.512;10.206;2023-06-26T02:56:15;7.97;;;6.35;;
45728;SDS011;31439;53.512;10.206;2023-06-26T02:58:41;8.90;;;6.90;;
45728;SDS011;31439;53.512;10.206;2023-06-26T03:01:06;7.95;;;6.82;;
45728;SDS011;31439;53.512;10.206;2023-06-26T03:03:32;7.82;;;7.03;;
45728;SDS011;31439;53.512;10.206;2023-06-26T03:06:05;9.40;;;7.07;;
45728;SDS011;31439;53.512;10.206;2023-06-26T03:08:36;8.00;;;6.50;;
45728;SDS011;31439;53.512;10.206;2023-06-26T03:11:02;12.35;;;7.55;;
45728;SDS011;31439;53.512;10.206;2023-06-26T03:13:28;8.77;;;6.55;;
45728;SDS011;31439;53.512;10.206;2023-06-26T03:15:53;7.72;;;6.63;;
45728;SDS011;31439;53.512;10.206;2023-06-26T03:18:22;9.63;;;7.10;;
45728;SDS011;31439;53.512;10.206;2023-06-26T03:20:47;8.05;;;7.25;;
45728;SDS011;31439;53.512;10.206;2023-06-26T03:23:22;10.10;;;7.10;;
45728;SDS011;31439;53.512;10.206;2023-06-26T03:25:48;8.60;;;6.55;;
45728;SDS011;31439;53.512;10.206;2023-06-26T03:28:14;8.40;;;7.05;;
45728;SDS011;31439;53.512;10.206;2023-06-26T03:30:39;7.28;;;6.57;;
45728;SDS011;31439;53.512;10.206;2023-06-26T03:33:05;7.97;;;7.15;;
45728;SDS011;31439;53.512;10.206;2023-06-26T03:35:31;9.48;;;7.32;;
45728;SDS011;31439;53.512;10.206;2023-06-26T03:37:59;8.30;;;7.03;;
45728;SDS011;31439;53.512;10.206;2023-06-26T03:40:26;7.55;;;6.85;;
45728;SDS011;31439;53.512;10.206;2023-06-26T03:42:51;9.05;;;7.20;;
45728;SDS011;31439;53.512;10.206;2023-06-26T03:45:17;7.93;;;6.47;;
45728;SDS011;31439;53.512;10.206;2023-06-26T03:47:44;9.60;;;6.97;;
45728;SDS011;31439;53.512;10.206;2023-06-26T03:50:12;10.45;;;7.20;;
45728;SDS011;31439;53.512;10.206;2023-06-26T03:52:37;9.73;;;7.00;;
45728;SDS011;31439;53.512;10.206;2023-06-26T03:55:03;8.82;;;7.35;;
45728;SDS011;31439;53.512;10.206;2023-06-26T03:57:29;7.95;;;7.15;;
45728;SDS011;31439;53.512;10.206;2023-06-26T03:59:54;7.82;;;7.00;;
45728;SDS011;31439;53.512;10.206;2023-06-26T04:02:20;7.75;;;6.80;;
45728;SDS011;31439;53.512;10.206;2023-06-26T04:04:45;7.55;;;6.75;;
45728;SDS011;31439;53.512;10.206;2023-06-26T04:07:11;7.68;;;6.65;;
45728;SDS011;31439;53.512;10.206;2023-06-26T04:09:37;8.13;;;6.95;;
45728;SDS011;31439;53.512;10.206;2023-06-26T04:12:03;8.23;;;7.30;;
45728;SDS011;31439;53.512;10.206;2023-06-26T04:14:29;10.90;;;6.65;;
45728;SDS011;31439;53.512;10.206;2023-06-26T04:16:54;7.95;;;6.95;;
45728;SDS011;31439;53.512;10.206;2023-06-26T04:19:20;6.85;;;6.15;;
45728;SDS011;31439;53.512;10.206;2023-06-26T04:21:45;8.65;;;6.90;;
45728;SDS011;31439;53.512;10.206;2023-06-26T04:24:11;11.32;;;6.95;;
45728;SDS011;31439;53.512;10.206;2023-06-26T04:26:37;8.85;;;6.50;;
45728;SDS011;31439;53.512;10.206;2023-06-26T04:29:06;7.88;;;6.55;;
45728;SDS011;31439;53.512;10.206;2023-06-26T04:31:31;12.02;;;7.10;;
45728;SDS011;31439;53.512;10.206;2023-06-26T04:33:57;8.10;;;6.72;;
45728;SDS011;31439;53.512;10.206;2023-06-26T04:36:24;9.20;;;6.78;;
45728;SDS011;31439;53.512;10.206;2023-06-26T04:38:57;7.97;;;6.60;;
45728;SDS011;31439;53.512;10.206;2023-06-26T04:41:23;8.45;;;7.28;;
45728;SDS011;31439;53.512;10.206;2023-06-26T04:43:49;7.72;;;6.55;;
45728;SDS011;31439;53.512;10.206;2023-06-26T04:46:15;7.78;;;6.78;;
45728;SDS011;31439;53.512;10.206;2023-06-26T04:48:40;8.88;;;7.07;;
45728;SDS011;31439;53.512;10.206;2023-06-26T04:51:06;9.10;;;7.03;;
45728;SDS011;31439;53.512;10.206;2023-06-26T04:53:31;11.93;;;7.10;;
45728;SDS011;31439;53.512;10.206;2023-06-26T04:55:57;8.35;;;6.93;;
45728;SDS011;31439;53.512;10.206;2023-06-26T04:58:23;8.85;;;6.97;;
45728;SDS011;31439;53.512;10.206;2023-06-26T05:00:48;8.82;;;7.10;;
45728;SDS011;31439;53.512;10.206;2023-06-26T05:03:15;9.00;;;7.22;;
45728;SDS011;31439;53.512;10.206;2023-06-26T05:05:43;8.52;;;7.13;;
45728;SDS011;31439;53.512;10.206;2023-06-26T05:08:22;13.40;;;7.05;;
45728;SDS011;31439;53.512;10.206;2023-06-26T05:10:48;9.88;;;6.65;;
45728;SDS011;31439;53.512;10.206;2023-06-26T05:13:14;10.38;;;7.13;;
45728;SDS011;31439;53.512;10.206;2023-06-26T05:15:42;7.93;;;7.13;;
45728;SDS011;31439;53.512;10.206;2023-06-26T05:18:09;9.38;;;6.82;;
45728;SDS011;31439;53.512;10.206;2023-06-26T05:20:35;8.75;;;7.28;;
45728;SDS011;31439;53.512;10.206;2023-06-26T05:23:04;11.18;;;7.72;;
45728;SDS011;31439;53.512;10.206;2023-06-26T05:25:30;9.23;;;7.18;;
45728;SDS011;31439;53.512;10.206;2023-06-26T05:27:57;9.45;;;7.20;;
45728;SDS011;31439;53.512;10.206;2023-06-26T05:30:23;10.13;;;8.05;;
45728;SDS011;31439;53.512;10.206;2023-06-26T05:32:53;10.27;;;7.10;;
45728;SDS011;31439;53.512;10.206;2023-06-26T05:35:22;9.88;;;7.07;;
45728;SDS011;31439;53.512;10.206;2023-06-26T05:37:49;9.15;;;6.65;;
45728;SDS011;31439;53.512;10.206;2023-06-26T05:40:16;9.07;;;6.60;;
45728;SDS011;31439;53.512;10.206;2023-06-26T05:42:42;8.30;;;6.82;;
45728;SDS011;31439;53.512;10.206;2023-06-26T05:45:08;12.38;;;6.95;;
45728;SDS011;31439;53.512;10.206;2023-06-26T05:47:35;8.57;;;6.90;;
45728;SDS011;31439;53.512;10.206;2023-06-26T05:50:01;9.13;;;6.90;;
45728;SDS011;31439;53.512;10.206;2023-06-26T05:52:27;8.68;;;6.25;;
45728;SDS011;31439;53.512;10.206;2023-06-26T05:54:52;8.45;;;6.25;;
45728;SDS011;31439;53.512;10.206;2023-06-26T05:57:19;12.13;;;7.05;;
45728;SDS011;31439;53.512;10.206;2023-06-26T05:59:46;9.50;;;6.80;;
45728;SDS011;31439;53.512;10.206;2023-06-26T06:02:12;10.18;;;7.13;;
45728;SDS011;31439;53.512;10.206;2023-06-26T06:04:38;8.68;;;6.35;;
45728;SDS011;31439;53.512;10.206;2023-06-26T06:07:03;9.00;;;6.82;;
45728;SDS011;31439;53.512;10.206;2023-06-26T06:09:29;9.57;;;6.80;;
45728;SDS011;31439;53.512;10.206;2023-06-26T06:11:55;8.40;;;7.20;;
45728;SDS011;31439;53.512;10.206;2023-06-26T06:14:20;8.52;;;6.93;;
45728;SDS011;31439;53.512;10.206;2023-06-26T06:16:46;9.40;;;6.90;;
45728;SDS011;31439;53.512;10.206;2023-06-26T06:19:11;8.45;;;6.93;;
45728;SDS011;31439;53.512;10.206;2023-06-26T06:21:38;9.50;;;7.40;;
45728;SDS011;31439;53.512;10.206;2023-06-26T06:24:04;10.68;;;6.78;;
45728;SDS011;31439;53.512;10.206;2023-06-26T06:26:32;8.20;;;6.60;;
45728;SDS011;31439;53.512;10.206;2023-06-26T06:28:57;8.45;;;6.72;;
45728;SDS011;31439;53.512;10.206;2023-06-26T06:31:23;8.27;;;6.68;;
45728;SDS011;31439;53.512;10.206;2023-06-26T06:33:49;8.52;;;6.82;;
45728;SDS011;31439;53.512;10.206;2023-06-26T06:36:14;8.57;;;6.95;;
45728;SDS011;31439;53.512;10.206;2023-06-26T06:38:42;13.30;;;6.90;;
45728;SDS011;31439;53.512;10.206;2023-06-26T06:41:09;10.13;;;7.18;;
45728;SDS011;31439;53.512;10.206;2023-06-26T06:43:34;9.13;;;7.32;;
45728;SDS011;31439;53.512;10.206;2023-06-26T06:46:01;8.98;;;6.68;;
45728;SDS011;31439;53.512;10.206;2023-06-26T06:48:26;9.70;;;6.75;;
45728;SDS011;31439;53.512;10.206;2023-06-26T06:50:52;8.27;;;6.53;;
45728;SDS011;31439;53.512;10.206;2023-06-26T06:53:18;7.85;;;6.53;;
45728;SDS011;31439;53.512;10.206;2023-06-26T06:55:46;10.00;;;6.88;;
45728;SDS011;31439;53.512;10.206;2023-06-26T06:58:12;10.75;;;6.03;;
45728;SDS011;31439;53.512;10.206;2023-06-26T07:00:37;9.25;;;6.80;;
45728;SDS011;31439;53.512;10.206;2023-06-26T07:03:03;9.52;;;6.53;;
45728;SDS011;31439;53.512;10.206;2023-06-26T07:05:29;7.03;;;6.18;;
45728;SDS011;31439;53.512;10.206;2023-06-26T07:07:54;8.48;;;6.70;;
45728;SDS011;31439;53.512;10.206;2023-06-26T07:10:20;7.45;;;6.32;;
45728;SDS011;31439;53.512;10.206;2023-06-26T07:12:46;7.72;;;6.40;;
45728;SDS011;31439;53.512;10.206;2023-06-26T07:15:12;8.25;;;6.40;;
45728;SDS011;31439;53.512;10.206;2023-06-26T07:17:37;7.10;;;6.38;;
45728;SDS011;31439;53.512;10.206;2023-06-26T07:20:04;7.90;;;6.45;;
45728;SDS011;31439;53.512;10.206;2023-06-26T07:22:35;12.48;;;6.65;;
45728;SDS011;31439;53.512;10.206;2023-06-26T07:25:01;9.32;;;6.40;;
45728;SDS011;31439;53.512;10.206;2023-06-26T07:27:27;8.70;;;6.05;;
45728;SDS011;31439;53.512;10.206;2023-06-26T07:29:52;7.72;;;6.05;;
45728;SDS011;31439;53.512;10.206;2023-06-26T07:32:18;8.73;;;6.53;;
45728;SDS011;31439;53.512;10.206;2023-06-26T07:34:44;7.60;;;6.18;;
45728;SDS011;31439;53.512;10.206;2023-06-26T07:37:09;7.43;;;6.18;;
45728;SDS011;31439;53.512;10.206;2023-06-26T07:39:35;11.77;;;6.65;;
45728;SDS011;31439;53.512;10.206;2023-06-26T07:42:00;9.02;;;6.47;;
45728;SDS011;31439;53.512;10.206;2023-06-26T07:44:26;8.32;;;6.40;;
45728;SDS011;31439;53.512;10.206;2023-06-26T07:46:52;9.43;;;6.95;;
45728;SDS011;31439;53.512;10.206;2023-06-26T07:49:17;8.30;;;6.88;;
45728;SDS011;31439;53.512;10.206;2023-06-26T07:51:43;8.48;;;6.82;;
45728;SDS011;31439;53.512;10.206;2023-06-26T07:54:09;8.65;;;6.70;;
45728;SDS011;31439;53.512;10.206;2023-06-26T07:56:35;7.80;;;6.78;;
45728;SDS011;31439;53.512;10.206;2023-06-26T07:59:24;7.75;;;6.32;;
45728;SDS011;31439;53.512;10.206;2023-06-26T08:01:51;7.50;;;6.70;;
45728;SDS011;31439;53.512;10.206;2023-06-26T08:04:19;8.30;;;6.38;;
45728;SDS011;31439;53.512;10.206;2023-06-26T08:06:45;7.35;;;6.18;;
45728;SDS011;31439;53.512;10.206;2023-06-26T08:09:14;8.18;;;6.25;;
45728;SDS011;31439;53.512;10.206;2023-06-26T08:11:40;8.68;;;6.45;;
45728;SDS011;31439;53.512;10.206;2023-06-26T08:14:06;7.38;;;6.60;;
45728;SDS011;31439;53.512;10.206;2023-06-26T08:16:32;10.40;;;6.57;;
45728;SDS011;31439;53.512;10.206;2023-06-26T08:18:57;7.30;;;5.93;;
45728;SDS011;31439;53.512;10.206;2023-06-26T08:21:23;8.52;;;6.45;;
45728;SDS011;31439;53.512;10.206;2023-06-26T08:23:48;10.80;;;6.82;;
45728;SDS011;31439;53.512;10.206;2023-06-26T08:26:14;8.75;;;6.60;;
45728;SDS011;31439;53.512;10.206;2023-06-26T08:28:40;8.07;;;6.50;;
45728;SDS011;31439;53.512;10.206;2023-06-26T08:31:05;12.77;;;6.45;;
45728;SDS011;31439;53.512;10.206;2023-06-26T08:33:31;8.35;;;6.40;;
45728;SDS011;31439;53.512;10.206;2023-06-26T08:35:56;9.27;;;6.57;;
45728;SDS011;31439;53.512;10.206;2023-06-26T08:38:22;9.82;;;6.43;;
45728;SDS011;31439;53.512;10.206;2023-06-26T08:40:47;10.35;;;7.00;;
45728;SDS011;31439;53.512;10.206;2023-06-26T08:43:13;8.15;;;6.53;;
45728;SDS011;31439;53.512;10.206;2023-06-26T08:45:39;8.80;;;6.68;;
45728;SDS011;31439;53.512;10.206;2023-06-26T08:48:07;8.55;;;6.85;;
45728;SDS011;31439;53.512;10.206;2023-06-26T08:50:34;9.77;;;6.28;;
45728;SDS011;31439;53.512;10.206;2023-06-26T08:55:33;10.80;;;6.60;;
45728;SDS011;31439;53.512;10.206;2023-06-26T08:58:03;9.73;;;6.05;;
45728;SDS011;31439;53.512;10.206;2023-06-26T09:00:29;11.55;;;6.22;;
45728;SDS011;31439;53.512;10.206;2023-06-26T09:02:56;11.77;;;6.28;;
45728;SDS011;31439;53.512;10.206;2023-06-26T09:05:21;7.63;;;6.40;;
45728;SDS011;31439;53.512;10.206;2023-06-26T09:07:47;7.22;;;6.07;;
45728;SDS011;31439;53.512;10.206;2023-06-26T09:10:13;8.32;;;6.43;;
45728;SDS011;31439;53.512;10.206;2023-06-26T09:12:38;12.15;;;6.88;;
45728;SDS011;31439;53.512;10.206;2023-06-26T09:15:05;8.93;;;6.78;;
45728;SDS011;31439;53.512;10.206;2023-06-26T09:17:33;7.80;;;6.32;;
45728;SDS011;31439;53.512;10.206;2023-06-26T09:20:05;10.38;;;7.20;;
45728;SDS011;31439;53.512;10.206;2023-06-26T09:22:33;13.73;;;6.60;;
45728;SDS011;31439;53.512;10.206;2023-06-26T09:25:02;9.10;;;6.65;;
45728;SDS011;31439;53.512;10.206;2023-06-26T09:27:29;14.35;;;6.55;;
45728;SDS011;31439;53.512;10.206;2023-06-26T09:29:55;13.40;;;6.95;;
45728;SDS011;31439;53.512;10.206;2023-06-26T09:32:26;9.18;;;7.28;;
45728;SDS011;31439;53.512;10.206;2023-06-26T09:34:53;11.23;;;7.28;;
45728;SDS011;31439;53.512;10.206;2023-06-26T09:37:20;8.98;;;7.88;;
45728;SDS011;31439;53.512;10.206;2023-06-26T09:39:47;10.07;;;7.55;;
45728;SDS011;31439;53.512;10.206;2023-06-26T09:42:13;10.68;;;7.90;;
45728;SDS011;31439;53.512;10.206;2023-06-26T09:44:43;10.15;;;8.40;;
45728;SDS011;31439;53.512;10.206;2023-06-26T09:47:10;11.77;;;8.73;;
45728;SDS011;31439;53.512;10.206;2023-06-26T09:49:35;12.13;;;8.75;;
45728;SDS011;31439;53.512;10.206;2023-06-26T09:52:01;13.07;;;9.52;;
45728;SDS011;31439;53.512;10.206;2023-06-26T09:54:27;12.68;;;9.23;;
45728;SDS011;31439;53.512;10.206;2023-06-26T09:56:55;11.80;;;9.50;;
45728;SDS011;31439;53.512;10.206;2023-06-26T09:59:31;9.15;;;8.25;;
45728;SDS011;31439;53.512;10.206;2023-06-26T10:01:58;11.35;;;9.23;;
45728;SDS011;31439;53.512;10.206;2023-06-26T10:04:25;12.45;;;8.73;;
45728;SDS011;31439;53.512;10.206;2023-06-26T10:06:50;10.68;;;8.77;;
45728;SDS011;31439;53.512;10.206;2023-06-26T10:09:19;15.45;;;9.00;;
45728;SDS011;31439;53.512;10.206;2023-06-26T10:11:47;15.00;;;8.77;;
45728;SDS011;31439;53.512;10.206;2023-06-26T10:14:19;12.98;;;8.88;;
45728;SDS011;31439;53.512;10.206;2023-06-26T10:16:46;14.35;;;9.82;;
45728;SDS011;31439;53.512;10.206;2023-06-26T10:19:14;22.27;;;10.55;;
45728;SDS011;31439;53.512;10.206;2023-06-26T10:21:44;14.57;;;10.48;;
45728;SDS011;31439;53.512;10.206;2023-06-26T10:24:10;13.85;;;9.98;;
45728;SDS011;31439;53.512;10.206;2023-06-26T10:26:38;17.60;;;10.98;;
45728;SDS011;31439;53.512;10.206;2023-06-26T10:29:08;14.77;;;10.82;;
45728;SDS011;31439;53.512;10.206;2023-06-26T10:31:35;22.08;;;11.60;;
45728;SDS011;31439;53.512;10.206;2023-06-26T10:34:03;16.65;;;11.43;;
45728;SDS011;31439;53.512;10.206;2023-06-26T10:36:30;16.05;;;11.63;;
45728;SDS011;31439;53.512;10.206;2023-06-26T10:39:02;21.33;;;13.57;;
45728;SDS011;31439;53.512;10.206;2023-06-26T10:41:35;19.93;;;13.13;;
45728;SDS011;31439;53.512;10.206;2023-06-26T10:44:11;16.92;;;12.73;;
45728;SDS011;31439;53.512;10.206;2023-06-26T10:49:32;11.90;;;10.60;;
45728;SDS011;31439;53.512;10.206;2023-06-26T10:52:00;14.98;;;10.60;;
45728;SDS011;31439;53.512;10.206;2023-06-26T10:54:30;13.15;;;9.60;;
45728;SDS011;31439;53.512;10.206;2023-06-26T10:56:57;16.17;;;9.45;;
45728;SDS011;31439;53.512;10.206;2023-06-26T10:59:23;14.68;;;9.52;;
45728;SDS011;31439;53.512;10.206;2023-06-26T11:01:54;12.73;;;8.13;;
45728;SDS011;31439;53.512;10.206;2023-06-26T11:04:40;12.60;;;8.23;;
45728;SDS011;31439;53.512;10.206;2023-06-26T11:10:01;11.55;;;9.30;;
45728;SDS011;31439;53.512;10.206;2023-06-26T11:12:36;13.00;;;9.18;;
45728;SDS011;31439;53.512;10.206;2023-06-26T11:15:05;13.75;;;9.95;;
45728;SDS011;31439;53.512;10.206;2023-06-26T11:17:39;14.13;;;8.52;;
45728;SDS011;31439;53.512;10.206;2023-06-26T11:20:07;12.23;;;9.50;;
45728;SDS011;31439;53.512;10.206;2023-06-26T11:22:34;16.52;;;9.90;;
45728;SDS011;31439;53.512;10.206;2023-06-26T11:25:01;12.90;;;9.52;;
45728;SDS011;31439;53.512;10.206;2023-06-26T11:27:40;13.70;;;9.38;;
45728;SDS011;31439;53.512;10.206;2023-06-26T11:30:07;12.40;;;8.70;;
45728;SDS011;31439;53.512;10.206;2023-06-26T11:32:34;12.80;;;8.50;;
45728;SDS011;31439;53.512;10.206;2023-06-26T11:35:04;12.90;;;9.10;;
45728;SDS011;31439;53.512;10.206;2023-06-26T11:37:31;11.20;;;8.35;;
45728;SDS011;31439;53.512;10.206;2023-06-26T11:39:57;11.95;;;8.30;;
45728;SDS011;31439;53.512;10.206;2023-06-26T11:42:23;12.98;;;7.90;;
45728;SDS011;31439;53.512;10.206;2023-06-26T11:44:50;15.07;;;7.80;;
45728;SDS011;31439;53.512;10.206;2023-06-26T11:47:19;14.90;;;6.32;;
45728;SDS011;31439;53.512;10.206;2023-06-26T11:49:46;12.00;;;6.00;;
45728;SDS011;31439;53.512;10.206;2023-06-26T11:52:22;12.68;;;5.63;;
45728;SDS011;31439;53.512;10.206;2023-06-26T11:54:55;10.18;;;5.90;;
45728;SDS011;31439;53.512;10.206;2023-06-26T12:08:26;9.07;;;3.72;;
45728;SDS011;31439;53.512;10.206;2023-06-26T12:14:06;12.00;;;4.10;;
45728;SDS011;31439;53.512;10.206;2023-06-26T12:19:14;11.15;;;3.25;;
45728;SDS011;31439;53.512;10.206;2023-06-26T12:24:07;6.55;;;2.67;;
45728;SDS011;31439;53.512;10.206;2023-06-26T12:26:34;8.13;;;2.17;;
45728;SDS011;31439;53.512;10.206;2023-06-26T12:29:04;9.93;;;2.72;;
45728;SDS011;31439;53.512;10.206;2023-06-26T12:31:30;6.82;;;2.60;;
45728;SDS011;31439;53.512;10.206;2023-06-26T12:33:57;6.93;;;2.63;;
45728;SDS011;31439;53.512;10.206;2023-06-26T12:36:22;8.07;;;2.55;;
45728;SDS011;31439;53.512;10.206;2023-06-26T12:38:48;9.02;;;2.88;;
45728;SDS011;31439;53.512;10.206;2023-06-26T12:41:15;8.70;;;2.90;;
45728;SDS011;31439;53.512;10.206;2023-06-26T12:43:41;6.45;;;2.60;;
45728;SDS011;31439;53.512;10.206;2023-06-26T12:46:07;9.82;;;2.85;;
45728;SDS011;31439;53.512;10.206;2023-06-26T12:48:36;6.85;;;2.38;;
45728;SDS011;31439;53.512;10.206;2023-06-26T12:51:12;13.65;;;3.10;;
45728;SDS011;31439;53.512;10.206;2023-06-26T12:53:39;11.68;;;3.08;;
45728;SDS011;31439;53.512;10.206;2023-06-26T12:56:06;9.30;;;2.60;;
45728;SDS011;31439;53.512;10.206;2023-06-26T12:58:32;8.85;;;2.70;;
45728;SDS011;31439;53.512;10.206;2023-06-26T13:00:59;8.32;;;2.83;;
45728;SDS011;31439;53.512;10.206;2023-06-26T13:03:24;9.20;;;2.70;;
45728;SDS011;31439;53.512;10.206;2023-06-26T13:05:50;10.63;;;2.20;;
45728;SDS011;31439;53.512;10.206;2023-06-26T13:08:16;7.57;;;2.28;;
45728;SDS011;31439;53.512;10.206;2023-06-26T13:10:44;6.40;;;2.20;;
45728;SDS011;31439;53.512;10.206;2023-06-26T13:13:10;9.55;;;2.83;;
45728;SDS011;31439;53.512;10.206;2023-06-26T13:15:36;7.97;;;2.45;;
45728;SDS011;31439;53.512;10.206;2023-06-26T13:18:02;7.28;;;2.58;;
45728;SDS011;31439;53.512;10.206;2023-06-26T13:20:28;7.05;;;2.33;;
45728;SDS011;31439;53.512;10.206;2023-06-26T13:22:53;7.45;;;2.13;;
45728;SDS011;31439;53.512;10.206;2023-06-26T13:25:20;6.43;;;2.25;;
45728;SDS011;31439;53.512;10.206;2023-06-26T13:27:46;6.38;;;2.40;;
45728;SDS011;31439;53.512;10.206;2023-06-26T13:30:13;7.88;;;2.22;;
45728;SDS011;31439;53.512;10.206;2023-06-26T13:32:40;7.72;;;2.33;;
45728;SDS011;31439;53.512;10.206;2023-06-26T13:35:06;9.68;;;1.90;;
45728;SDS011;31439;53.512;10.206;2023-06-26T13:37:32;8.93;;;2.33;;
45728;SDS011;31439;53.512;10.206;2023-06-26T13:39:59;7.32;;;2.22;;
45728;SDS011;31439;53.512;10.206;2023-06-26T13:42:26;9.77;;;2.42;;
45728;SDS011;31439;53.512;10.206;2023-06-26T13:44:52;8.32;;;2.50;;
45728;SDS011;31439;53.512;10.206;2023-06-26T13:47:18;7.35;;;2.25;;
45728;SDS011;31439;53.512;10.206;2023-06-26T13:49:44;8.40;;;2.13;;
45728;SDS011;31439;53.512;10.206;2023-06-26T13:52:09;5.00;;;2.30;;
45728;SDS011;31439;53.512;10.206;2023-06-26T13:54:35;7.90;;;1.98;;
45728;SDS011;31439;53.512;10.206;2023-06-26T13:57:04;6.40;;;2.35;;
45728;SDS011;31439;53.512;10.206;2023-06-26T13:59:30;5.85;;;2.17;;
45728;SDS011;31439;53.512;10.206;2023-06-26T14:01:56;9.35;;;2.38;;
45728;SDS011;31439;53.512;10.206;2023-06-26T14:04:22;8.93;;;2.10;;
45728;SDS011;31439;53.512;10.206;2023-06-26T14:06:47;9.40;;;2.10;;
45728;SDS011;31439;53.512;10.206;2023-06-26T14:09:13;5.93;;;2.03;;
45728;SDS011;31439;53.512;10.206;2023-06-26T14:11:39;8.82;;;2.55;;
45728;SDS011;31439;53.512;10.206;2023-06-26T14:14:05;7.00;;;2.22;;
45728;SDS011;31439;53.512;10.206;2023-06-26T14:16:30;6.22;;;2.22;;
45728;SDS011;31439;53.512;10.206;2023-06-26T14:18:58;5.50;;;2.05;;
45728;SDS011;31439;53.512;10.206;2023-06-26T14:21:23;5.30;;;1.90;;
45728;SDS011;31439;53.512;10.206;2023-06-26T14:23:49;8.68;;;2.50;;
45728;SDS011;31439;53.512;10.206;2023-06-26T14:26:15;5.10;;;2.00;;
45728;SDS011;31439;53.512;10.206;2023-06-26T14:28:40;5.72;;;1.90;;
45728;SDS011;31439;53.512;10.206;2023-06-26T14:31:06;5.18;;;1.90;;
45728;SDS011;31439;53.512;10.206;2023-06-26T14:33:32;4.13;;;1.80;;
45728;SDS011;31439;53.512;10.206;2023-06-26T14:35:57;4.45;;;1.90;;
45728;SDS011;31439;53.512;10.206;2023-06-26T14:38:23;6.05;;;1.83;;
45728;SDS011;31439;53.512;10.206;2023-06-26T14:40:49;5.65;;;2.03;;
45728;SDS011;31439;53.512;10.206;2023-06-26T14:43:14;5.38;;;1.70;;
45728;SDS011;31439;53.512;10.206;2023-06-26T14:45:41;6.75;;;1.80;;
45728;SDS011;31439;53.512;10.206;2023-06-26T14:48:06;3.80;;;1.52;;
45728;SDS011;31439;53.512;10.206;2023-06-26T14:50:32;5.32;;;1.60;;
45728;SDS011;31439;53.512;10.206;2023-06-26T14:52:58;4.57;;;1.77;;
45728;SDS011;31439;53.512;10.206;2023-06-26T14:55:24;4.72;;;1.75;;
45728;SDS011;31439;53.512;10.206;2023-06-26T14:57:49;5.28;;;1.55;;
45728;SDS011;31439;53.512;10.206;2023-06-26T15:00:15;6.65;;;1.80;;
45728;SDS011;31439;53.512;10.206;2023-06-26T15:02:41;5.50;;;1.70;;
45728;SDS011;31439;53.512;10.206;2023-06-26T15:05:07;5.47;;;1.98;;
45728;SDS011;31439;53.512;10.206;2023-06-26T15:07:35;4.00;;;1.60;;
45728;SDS011;31439;53.512;10.206;2023-06-26T15:10:00;4.13;;;1.58;;
45728;SDS011;31439;53.512;10.206;2023-06-26T15:12:26;4.28;;;1.52;;
45728;SDS011;31439;53.512;10.206;2023-06-26T15:14:52;3.85;;;1.60;;
45728;SDS011;31439;53.512;10.206;2023-06-26T15:17:18;4.10;;;1.77;;
45728;SDS011;31439;53.512;10.206;2023-06-26T15:19:43;4.90;;;1.65;;
45728;SDS011;31439;53.512;10.206;2023-06-26T15:22:09;3.55;;;1.40;;
45728;SDS011;31439;53.512;10.206;2023-06-26T15:24:34;7.55;;;1.50;;
45728;SDS011;31439;53.512;10.206;2023-06-26T15:27:00;5.60;;;1.30;;